Farmville, North Carolina
Current Conditions -  °F | °C
As of 5:35 PM on Monday 24 Nov 2014 (Local Time) from KPGV Reporting Station
Drizzle Drizzle  
Wind Chill: 68°   Ceiling: 1700
Heat Index: 68°   Visibility: 10mi
Dew Point: 64°   Wind: 9mph
Humidity: 88%   Direction: 220°SW
Pressure: 29.87"   Gusts: NA
Location:  35.6°N, 77.59°W
Report Text: KPGV 242235Z AUTO 22008KT 10SM -DZ SCT008 BKN017 OVC075 20/18 A2987 RMK AO2
Loading
Personal Weather Stations






























Interactive Weather Map New forecast layout! Learn more

10-Day Weather Forecast

Advertisements
Track Severe Weather on mobile